Impacts METAR Board INFO
IDs:

KEWR - Newark Intl, NJ, US

Updated at: 0523 UTC 19 Jan 2018
Potential Impact None Slight Moderate High
Time18/17Z 18/18Z 18/19Z 18/20Z 18/21Z 18/22Z 18/23Z 19/00Z 19/01Z 19/02Z 19/03Z 19/04Z 19/05Z
VIS10 10 10 10 10 10 10 10 10 10 10 10 10
CIG-- -- -- -- -- -- -- -- -- -- -- -- --
CoverFEWFEWFEWCLRCLRCLRCLRCLRCLRCLRCLRCLRCLR
FltCatVFRVFRVFRVFRVFRVFRVFRVFRVFRVFRVFRVFRVFR
WX--------------------------
WDir310310310290290300290280300280290310280
WSpd13 14 14 13 12 10 10 9 8 8 8 8 6
WGst-- 19 -- 21 22 22 17 -- 15 -- -- -- --
Raw hourly METARs
KEWR 181651Z 31013KT 10SM FEW250 M01/M14 A3001 RMK AO2 SLP162 T10111144
KEWR 181751Z 31014G19KT 10SM FEW250 00/M13 A2998 RMK AO2 SLP150 T00001133 10000 21078 58034
KEWR 181851Z 31014KT 10SM FEW250 01/M14 A2994 RMK AO2 SLP139 T00061139
KEWR 181951Z 29013G21KT 10SM CLR 01/M13 A2994 RMK AO2 SLP137 T00111128
KEWR 182051Z 29012G22KT 10SM CLR 01/M12 A2995 RMK AO2 SLP141 T00111122 55009
KEWR 182151Z 30010G22KT 10SM CLR M01/M12 A2996 RMK AO2 SLP145 T10061117
KEWR 182251Z 29010G17KT 10SM CLR M01/M12 A3001 RMK AO2 SLP161 T10111117
KEWR 182351Z 28009KT 10SM CLR M02/M12 A3004 RMK AO2 SLP171 T10171117 10017 21017 53030
KEWR 190051Z 30008G15KT 10SM CLR M02/M12 A3004 RMK AO2 SLP173 T10171117
KEWR 190151Z 28008KT 10SM CLR M02/M11 A3008 RMK AO2 SLP184 T10221111
KEWR 190251Z 29008KT 10SM CLR M03/M11 A3010 RMK AO2 SLP190 T10281111 53020
KEWR 190351Z 31008KT 10SM CLR M03/M11 A3009 RMK AO2 SLP187 T10331111
KEWR 190451Z 28006KT 10SM CLR M03/M11 A3008 RMK AO2 SLP186 T10331111 400171083